createdAt,value
2018-09-03T00:02:20.764Z,5.00
2018-09-03T00:04:49.864Z,4.80
2018-09-03T00:07:19.083Z,6.00
2018-09-03T00:09:48.157Z,5.17
2018-09-03T00:12:17.836Z,4.50
2018-09-03T00:14:46.957Z,5.17
2018-09-03T00:17:16.589Z,5.37
2018-09-03T00:19:46.467Z,4.57
2018-09-03T00:22:15.556Z,5.27
2018-09-03T00:24:44.610Z,6.13
2018-09-03T00:27:14.253Z,6.27
2018-09-03T00:29:43.363Z,5.37
2018-09-03T00:32:17.902Z,5.30
2018-09-03T00:34:52.244Z,5.40
2018-09-03T00:37:26.781Z,4.83
2018-09-03T00:40:01.072Z,5.30
2018-09-03T00:42:35.320Z,5.40
2018-09-03T00:45:10.121Z,6.50
2018-09-03T00:47:39.285Z,5.70
2018-09-03T00:50:08.578Z,7.70
2018-09-03T00:52:38.148Z,5.40
2018-09-03T00:55:07.444Z,6.83
2018-09-03T00:57:36.506Z,4.90
2018-09-03T01:00:06.352Z,5.27
2018-09-03T01:02:36.163Z,7.40
2018-09-03T01:05:05.365Z,5.80
2018-09-03T01:07:34.474Z,5.30
2018-09-03T01:10:04.356Z,7.83
2018-09-03T01:12:34.200Z,6.07
2018-09-03T01:15:03.336Z,5.73
2018-09-03T01:17:32.412Z,7.00
2018-09-03T01:20:01.533Z,6.43
2018-09-03T01:22:30.580Z,7.73
2018-09-03T01:24:59.675Z,6.10
2018-09-03T01:27:28.776Z,6.13
2018-09-03T01:29:57.879Z,5.20
2018-09-03T01:32:27.758Z,5.10
2018-09-03T01:34:56.848Z,5.03
2018-09-03T01:37:25.919Z,5.50
2018-09-03T01:39:55.237Z,5.63
2018-09-03T01:42:25.833Z,6.60
2018-09-03T01:44:55.767Z,7.20
2018-09-03T01:47:24.909Z,6.00
2018-09-03T01:49:53.968Z,5.50
2018-09-03T01:52:23.653Z,6.80
2018-09-03T01:54:53.696Z,6.03
2018-09-03T01:57:23.089Z,5.60
2018-09-03T01:59:52.160Z,5.40
2018-09-03T02:02:21.285Z,5.70
2018-09-03T02:04:50.388Z,6.13
2018-09-03T02:07:19.463Z,5.70
2018-09-03T02:09:48.564Z,5.50
2018-09-03T02:12:17.656Z,6.00
2018-09-03T02:14:46.738Z,6.27
2018-09-03T02:17:15.904Z,6.17
2018-09-03T02:19:45.028Z,6.23
2018-09-03T02:22:14.118Z,6.07
2018-09-03T02:24:43.240Z,6.00
2018-09-03T02:27:13.019Z,7.57
2018-09-03T02:29:42.121Z,9.03
2018-09-03T02:32:11.850Z,7.77
2018-09-03T02:34:40.934Z,9.23
2018-09-03T02:37:10.045Z,8.63
2018-09-03T02:39:39.437Z,7.57
2018-09-03T02:42:08.673Z,8.13
2018-09-03T02:44:38.952Z,7.77
2018-09-03T02:47:08.655Z,7.37
2018-09-03T02:49:37.841Z,7.77
2018-09-03T02:52:06.929Z,7.73
2018-09-03T02:54:36.024Z,6.60
2018-09-03T02:57:05.730Z,8.00
2018-09-03T02:59:34.896Z,7.80
2018-09-03T03:02:04.193Z,8.33
2018-09-03T03:04:33.320Z,7.00
2018-09-03T03:07:02.703Z,6.83
2018-09-03T03:09:32.622Z,7.93
2018-09-03T03:12:04.223Z,6.97
2018-09-03T03:14:33.345Z,6.60
2018-09-03T03:17:02.445Z,7.70
2018-09-03T03:19:31.613Z,7.80
2018-09-03T03:22:00.785Z,7.00
2018-09-03T03:24:30.497Z,7.80
2018-09-03T03:26:59.768Z,6.33
2018-09-03T03:29:28.894Z,6.50
2018-09-03T03:31:57.969Z,6.93
2018-09-03T03:34:27.594Z,6.43
2018-09-03T03:36:57.832Z,7.13
2018-09-03T03:39:27.004Z,7.40
2018-09-03T03:41:56.739Z,7.37
2018-09-03T03:44:25.837Z,6.47
2018-09-03T03:46:55.786Z,7.50
2018-09-03T03:49:25.784Z,7.17
2018-09-03T03:51:54.864Z,7.30
2018-09-03T03:54:24.657Z,7.07
2018-09-03T03:56:53.741Z,7.10
2018-09-03T03:59:22.821Z,7.30
2018-09-03T04:01:53.252Z,7.83
2018-09-03T04:04:22.386Z,8.47
2018-09-03T04:06:51.531Z,6.63
2018-09-03T04:09:21.060Z,10.37
2018-09-03T04:11:50.164Z,6.50
2018-09-03T04:14:19.282Z,6.57
2018-09-03T04:16:48.335Z,6.53
2018-09-03T04:19:17.470Z,7.03
2018-09-03T04:21:46.512Z,9.40
2018-09-03T04:24:15.732Z,7.10
2018-09-03T04:26:47.003Z,9.77
2018-09-03T04:29:16.104Z,7.97
2018-09-03T04:31:45.324Z,8.03
2018-09-03T04:34:14.397Z,7.43
2018-09-03T04:36:43.529Z,7.93
2018-09-03T04:39:12.675Z,6.40
2018-09-03T04:41:41.736Z,7.00
2018-09-03T04:44:11.785Z,8.10
2018-09-03T04:46:40.855Z,7.17
2018-09-03T04:49:10.443Z,7.47
2018-09-03T04:51:39.596Z,9.83
2018-09-03T04:54:08.694Z,9.57
2018-09-03T04:56:37.762Z,11.80
2018-09-03T04:59:06.833Z,8.30
2018-09-03T05:01:36.549Z,8.30
2018-09-03T05:04:06.138Z,6.73
2018-09-03T05:06:35.845Z,7.30
2018-09-03T05:09:06.168Z,8.70
2018-09-03T05:11:36.117Z,7.73
2018-09-03T05:14:05.603Z,7.60
2018-09-03T05:16:34.731Z,6.80
2018-09-03T05:19:03.823Z,8.90
2018-09-03T05:21:33.019Z,8.00
2018-09-03T05:24:02.114Z,7.43
2018-09-03T05:26:31.313Z,12.60
2018-09-03T05:29:01.417Z,8.47
2018-09-03T05:31:30.505Z,8.67
2018-09-03T05:33:59.644Z,8.40
2018-09-03T05:36:28.761Z,14.03
2018-09-03T05:38:57.849Z,8.63
2018-09-03T05:41:27.043Z,9.50
2018-09-03T05:43:56.144Z,8.70
2018-09-03T05:46:25.235Z,8.10
2018-09-03T05:48:54.309Z,9.63
2018-09-03T05:51:23.400Z,9.23
2018-09-03T05:53:52.484Z,7.37
2018-09-03T05:56:21.588Z,11.00
2018-09-03T05:58:50.824Z,7.63
2018-09-03T06:01:21.002Z,7.57
2018-09-03T06:03:50.097Z,8.80
2018-09-03T06:06:19.436Z,8.37
2018-09-03T06:08:48.502Z,7.80
2018-09-03T06:11:18.471Z,8.10
2018-09-03T06:13:47.599Z,8.87
2018-09-03T06:16:17.255Z,9.57
2018-09-03T06:18:46.527Z,8.57
2018-09-03T06:21:15.999Z,10.43
2018-09-03T06:23:45.172Z,8.70
2018-09-03T06:26:14.264Z,14.77
2018-09-03T06:28:43.351Z,9.27
2018-09-03T06:31:12.456Z,9.50
2018-09-03T06:33:41.600Z,11.80
2018-09-03T06:36:10.700Z,15.60
2018-09-03T06:38:39.881Z,11.00
2018-09-03T06:41:09.028Z,12.90
2018-09-03T06:43:38.123Z,9.10
2018-09-03T06:46:07.253Z,10.77
2018-09-03T06:48:36.340Z,15.53
2018-09-03T06:51:05.616Z,9.67
2018-09-03T06:53:34.796Z,8.90
2018-09-03T06:56:03.968Z,10.23
2018-09-03T06:58:33.364Z,10.50
2018-09-03T07:01:02.537Z,13.43
2018-09-03T07:03:38.411Z,11.20
2018-09-03T07:06:07.531Z,16.43
2018-09-03T07:08:37.004Z,11.83
2018-09-03T07:11:06.616Z,18.10
2018-09-03T07:13:35.839Z,16.37
2018-09-03T07:16:05.072Z,21.83
2018-09-03T07:18:34.211Z,13.53
2018-09-03T07:21:03.384Z,14.53
2018-09-03T07:23:32.565Z,13.90
2018-09-03T07:26:03.156Z,14.90
2018-09-03T07:28:33.059Z,16.20
2018-09-03T07:31:02.177Z,14.97
2018-09-03T07:33:31.371Z,13.47
2018-09-03T07:36:00.548Z,17.10
2018-09-03T07:38:29.901Z,15.30
2018-09-03T07:40:59.139Z,14.30
2018-09-03T07:43:28.918Z,17.00
2018-09-03T07:45:58.431Z,14.73
2018-09-03T07:48:28.325Z,16.40
2018-09-03T07:50:57.483Z,13.87
2018-09-03T07:53:27.516Z,15.93
2018-09-03T07:55:56.638Z,16.93
2018-09-03T07:58:26.474Z,13.47
2018-09-03T08:00:56.542Z,15.60
2018-09-03T08:03:26.274Z,32.00
2018-09-03T08:05:55.377Z,15.33
2018-09-03T08:08:24.477Z,14.70
2018-09-03T08:10:53.707Z,14.50
2018-09-03T08:13:42.401Z,16.00
2018-09-03T08:16:12.978Z,15.30
2018-09-03T08:18:42.467Z,15.20
2018-09-03T08:21:11.616Z,14.37
2018-09-03T08:23:41.485Z,15.03
2018-09-03T08:26:11.111Z,15.87
2018-09-03T08:28:40.241Z,15.27
2018-09-03T08:31:09.385Z,17.03
2018-09-03T08:33:38.555Z,18.17
2018-09-03T08:36:07.812Z,15.80
2018-09-03T08:38:37.585Z,16.60
2018-09-03T08:41:06.832Z,15.03
2018-09-03T08:43:36.704Z,15.33
2018-09-03T08:46:05.843Z,15.30
2018-09-03T08:48:35.079Z,15.53
2018-09-03T08:51:04.292Z,13.90
2018-09-03T08:53:34.184Z,16.47
2018-09-03T08:56:03.415Z,17.37
2018-09-03T08:58:32.512Z,15.10
2018-09-03T09:01:01.677Z,15.00
2018-09-03T09:03:37.391Z,14.67
2018-09-03T09:06:06.846Z,14.53
2018-09-03T09:08:36.060Z,15.07
2018-09-03T09:11:07.264Z,15.83
2018-09-03T09:13:36.528Z,15.20
2018-09-03T09:16:05.689Z,14.37
2018-09-03T09:18:34.852Z,13.80
2018-09-03T09:21:04.068Z,15.40
2018-09-03T09:23:33.216Z,15.20
2018-09-03T09:26:02.372Z,16.97
2018-09-03T09:28:31.464Z,14.73
2018-09-03T09:31:06.953Z,13.00
2018-09-03T09:33:36.684Z,13.37
2018-09-03T09:36:06.696Z,14.07
2018-09-03T09:38:36.486Z,13.20
2018-09-03T09:41:06.507Z,13.40
2018-09-03T09:43:36.229Z,15.93
2018-09-03T09:46:05.451Z,12.80
2018-09-03T09:48:34.579Z,14.13
2018-09-03T09:51:03.764Z,14.13
2018-09-03T09:53:33.748Z,14.03
2018-09-03T09:56:03.329Z,15.13
2018-09-03T09:58:32.473Z,14.43
2018-09-03T10:01:07.052Z,12.70
2018-09-03T10:03:36.174Z,16.53
2018-09-03T10:06:05.407Z,12.83
2018-09-03T10:08:34.592Z,13.40
2018-09-03T10:11:04.132Z,13.13
2018-09-03T10:13:33.360Z,12.90
2018-09-03T10:16:02.517Z,15.10
2018-09-03T10:18:31.659Z,14.03
2018-09-03T10:21:00.868Z,14.00
2018-09-03T10:23:30.049Z,13.93
2018-09-03T10:25:59.276Z,13.50
2018-09-03T10:28:28.448Z,16.00
2018-09-03T10:30:58.287Z,16.50
2018-09-03T10:33:27.901Z,14.60
2018-09-03T10:35:57.807Z,15.10
2018-09-03T10:38:27.025Z,16.43
2018-09-03T10:40:57.357Z,17.40
2018-09-03T10:43:27.093Z,17.33
2018-09-03T10:45:56.233Z,14.50
2018-09-03T10:48:25.384Z,13.60
2018-09-03T10:50:55.192Z,15.80
2018-09-03T10:53:25.194Z,16.50
2018-09-03T10:55:54.329Z,16.30
2018-09-03T10:58:23.587Z,16.07
2018-09-03T11:00:53.428Z,14.97
2018-09-03T11:03:22.568Z,12.07
2018-09-03T11:05:52.364Z,14.30
2018-09-03T11:08:21.520Z,15.60
2018-09-03T11:10:51.243Z,15.73
2018-09-03T11:13:20.528Z,16.27
2018-09-03T11:15:49.635Z,15.93
2018-09-03T11:18:19.336Z,17.00
2018-09-03T11:20:48.546Z,17.53
2018-09-03T11:23:18.351Z,20.73
2018-09-03T11:25:47.483Z,17.10
2018-09-03T11:28:16.607Z,16.70
2018-09-03T11:30:45.865Z,15.90
2018-09-03T11:33:15.027Z,16.77
2018-09-03T11:35:44.090Z,17.60
2018-09-03T11:38:13.250Z,16.73
2018-09-03T11:40:42.428Z,18.60
2018-09-03T11:43:13.456Z,16.47
2018-09-03T11:45:42.577Z,17.00
2018-09-03T11:48:11.731Z,18.20
2018-09-03T11:50:41.041Z,17.90
2018-09-03T11:53:10.208Z,17.63
2018-09-03T11:55:39.352Z,17.73
2018-09-03T11:58:08.636Z,18.40
2018-09-03T12:00:38.307Z,18.53
2018-09-03T12:03:07.356Z,18.37
2018-09-03T12:05:36.659Z,19.97
2018-09-03T12:08:05.858Z,19.90
2018-09-03T12:10:34.933Z,19.47
2018-09-03T12:13:04.219Z,19.07
2018-09-03T12:15:39.855Z,17.50
2018-09-03T12:18:09.715Z,16.80
2018-09-03T12:20:40.419Z,18.47
2018-09-03T12:23:09.538Z,19.20
2018-09-03T12:25:39.231Z,18.90
2018-09-03T12:28:08.348Z,18.40
2018-09-03T12:30:37.738Z,18.63
2018-09-03T12:33:06.919Z,17.67
2018-09-03T12:35:36.056Z,18.83
2018-09-03T12:38:05.225Z,21.57
2018-09-03T12:40:34.419Z,20.87
2018-09-03T12:43:03.639Z,20.00
2018-09-03T12:45:38.064Z,23.37
2018-09-03T12:48:07.438Z,19.30
2018-09-03T12:50:36.530Z,18.80
2018-09-03T12:53:05.964Z,17.90
2018-09-03T12:55:35.082Z,22.07
2018-09-03T12:58:05.004Z,20.93
2018-09-03T13:00:38.676Z,21.73
2018-09-03T13:03:04.391Z,22.67
2018-09-03T13:05:33.533Z,21.60
2018-09-03T13:08:02.711Z,23.00
2018-09-03T13:10:32.386Z,24.27
2018-09-03T13:13:01.516Z,20.00
2018-09-03T13:15:30.703Z,22.33
2018-09-03T13:17:59.811Z,20.93
2018-09-03T13:20:28.950Z,23.93
2018-09-03T13:22:58.197Z,23.60
2018-09-03T13:25:27.403Z,22.87
2018-09-03T13:27:57.156Z,21.33
2018-09-03T13:30:27.000Z,22.87
2018-09-03T13:32:56.895Z,22.90
2018-09-03T13:35:26.249Z,24.40
2018-09-03T13:37:55.508Z,23.73
2018-09-03T13:40:24.672Z,24.23
2018-09-03T13:42:55.196Z,23.23
2018-09-03T13:45:24.338Z,23.70
2018-09-03T13:47:53.455Z,23.57
2018-09-03T13:50:22.708Z,25.63
2018-09-03T13:52:51.886Z,26.83
2018-09-03T13:55:21.097Z,23.50
2018-09-03T13:57:50.298Z,24.23
2018-09-03T14:00:20.101Z,26.17
2018-09-03T14:02:49.531Z,25.50
2018-09-03T14:05:18.944Z,24.23
2018-09-03T14:07:50.627Z,22.23
2018-09-03T14:10:22.973Z,19.87
2018-09-03T14:12:52.842Z,25.23
2018-09-03T14:15:22.877Z,28.57
2018-09-03T14:17:52.193Z,26.27
2018-09-03T14:20:21.945Z,25.53
2018-09-03T14:22:51.116Z,27.03
2018-09-03T14:25:21.140Z,24.47
2018-09-03T14:27:50.355Z,25.67
2018-09-03T14:30:19.565Z,28.10
2018-09-03T14:32:48.793Z,27.20
2018-09-03T14:35:20.622Z,25.17
2018-09-03T14:37:49.836Z,25.40
2018-09-03T14:40:18.997Z,28.40
2018-09-03T14:42:48.182Z,30.47
2018-09-03T14:45:20.309Z,26.57
2018-09-03T14:47:49.571Z,27.13
2018-09-03T14:50:18.924Z,23.83
2018-09-03T14:52:48.757Z,28.97
2018-09-03T14:55:18.350Z,27.00
2018-09-03T14:57:47.731Z,23.73
2018-09-03T15:00:16.867Z,25.83
2018-09-03T15:02:46.045Z,24.23
2018-09-03T15:05:15.143Z,26.87
2018-09-03T15:07:45.007Z,23.73
2018-09-03T15:10:14.144Z,24.57
2018-09-03T15:12:43.922Z,26.50
2018-09-03T15:15:13.195Z,29.67
2018-09-03T15:17:42.371Z,27.90
2018-09-03T15:20:11.462Z,27.93
2018-09-03T15:22:40.690Z,28.17
2018-09-03T15:25:09.829Z,24.07
2018-09-03T15:27:39.066Z,24.70
2018-09-03T15:30:08.254Z,27.90
2018-09-03T15:32:38.115Z,26.97
2018-09-03T15:35:08.198Z,23.73
2018-09-03T15:37:37.984Z,25.87
2018-09-03T15:40:08.911Z,27.17
2018-09-03T15:42:38.190Z,24.50
2018-09-03T15:45:07.568Z,23.87
2018-09-03T15:47:37.566Z,22.67
2018-09-03T15:50:06.889Z,26.87
2018-09-03T15:52:36.102Z,25.37
2018-09-03T15:55:05.360Z,26.50
2018-09-03T15:57:34.664Z,25.57
2018-09-03T16:00:04.112Z,26.83
2018-09-03T16:02:34.012Z,25.57
2018-09-03T16:05:03.211Z,28.90
2018-09-03T16:07:32.947Z,25.60
2018-09-03T16:10:02.228Z,25.10
2018-09-03T16:12:31.462Z,27.93
2018-09-03T16:15:00.592Z,25.87
2018-09-03T16:17:29.743Z,26.67
2018-09-03T16:19:59.072Z,28.77
2018-09-03T16:22:29.299Z,26.30
2018-09-03T16:24:58.529Z,26.70
2018-09-03T16:27:27.864Z,25.77
2018-09-03T16:29:57.294Z,23.60
2018-09-03T16:32:26.444Z,25.70
2018-09-03T16:34:55.736Z,23.20
2018-09-03T16:37:24.923Z,22.50
2018-09-03T16:39:54.634Z,23.37
2018-09-03T16:42:23.797Z,33.37
2018-09-03T16:44:52.999Z,26.57
2018-09-03T16:47:22.144Z,23.50
2018-09-03T16:49:51.331Z,23.10
2018-09-03T16:52:20.467Z,26.47
2018-09-03T16:54:50.177Z,24.97
2018-09-03T16:57:19.329Z,21.87
2018-09-03T16:59:48.539Z,26.03
2018-09-03T17:02:17.771Z,22.00
2018-09-03T17:04:47.042Z,23.60
2018-09-03T17:07:16.453Z,23.87
2018-09-03T17:09:45.604Z,22.17
2018-09-03T17:12:14.814Z,21.63
2018-09-03T17:14:44.063Z,21.67
2018-09-03T17:17:13.307Z,24.00
2018-09-03T17:19:47.861Z,23.77
2018-09-03T17:22:17.447Z,23.70
2018-09-03T17:24:50.370Z,23.57
2018-09-03T17:27:22.309Z,22.50
2018-09-03T17:29:52.096Z,22.97
2018-09-03T17:32:21.347Z,21.80
2018-09-03T17:34:50.509Z,23.33
2018-09-03T17:37:20.573Z,24.03
2018-09-03T17:39:49.861Z,24.70
2018-09-03T17:42:19.107Z,26.67
2018-09-03T17:44:49.357Z,26.20
2018-09-03T17:47:18.534Z,25.57
2018-09-03T17:49:47.975Z,24.17
2018-09-03T17:52:17.789Z,28.93
2018-09-03T17:54:47.083Z,29.23
2018-09-03T17:57:16.306Z,33.77
2018-09-03T17:59:45.584Z,24.00
2018-09-03T18:02:14.941Z,21.90
2018-09-03T18:04:44.210Z,25.13
2018-09-03T18:07:13.408Z,24.33
2018-09-03T18:09:42.805Z,25.30
2018-09-03T18:12:12.301Z,22.93
2018-09-03T18:14:41.653Z,24.07
2018-09-03T18:17:10.876Z,24.23
2018-09-03T18:19:40.056Z,25.47
2018-09-03T18:22:09.312Z,24.63
2018-09-03T18:24:38.523Z,24.80
2018-09-03T18:27:08.060Z,23.07
2018-09-03T18:29:38.032Z,25.47
2018-09-03T18:32:07.260Z,25.00
2018-09-03T18:34:36.606Z,25.37
2018-09-03T18:37:06.307Z,22.90
2018-09-03T18:39:36.292Z,24.30
2018-09-03T18:42:06.931Z,26.50
2018-09-03T18:44:36.224Z,25.03
2018-09-03T18:47:05.558Z,24.37
2018-09-03T18:49:35.701Z,23.50
2018-09-03T18:52:05.401Z,23.30
2018-09-03T18:54:35.055Z,26.23
2018-09-03T18:57:04.506Z,25.37
2018-09-03T18:59:33.893Z,23.30
2018-09-03T19:02:03.265Z,23.03
2018-09-03T19:04:32.494Z,24.40
2018-09-03T19:07:01.684Z,22.87
2018-09-03T19:09:31.080Z,24.73
2018-09-03T19:12:00.595Z,24.67
2018-09-03T19:14:30.434Z,28.57
2018-09-03T19:16:59.791Z,38.70
2018-09-03T19:19:29.240Z,55.10
2018-09-03T19:21:58.458Z,33.10
2018-09-03T19:24:27.631Z,29.70
2018-09-03T19:26:56.885Z,26.77
2018-09-03T19:29:26.158Z,29.80
2018-09-03T19:31:55.460Z,30.43
2018-09-03T19:34:25.375Z,28.33
2018-09-03T19:36:54.650Z,27.80
2018-09-03T19:39:24.449Z,27.00
2018-09-03T19:41:53.688Z,25.77
2018-09-03T19:44:23.409Z,28.40
2018-09-03T19:46:52.577Z,30.90
2018-09-03T19:49:21.807Z,31.80
2018-09-03T19:51:51.020Z,30.90
2018-09-03T19:54:20.287Z,29.57
2018-09-03T19:56:49.477Z,32.97
2018-09-03T19:59:18.645Z,31.50
2018-09-03T20:01:48.816Z,29.50
2018-09-03T20:04:18.220Z,27.27
2018-09-03T20:06:47.505Z,30.53
2018-09-03T20:09:16.841Z,27.80
2018-09-03T20:11:46.201Z,27.80
2018-09-03T20:14:16.464Z,28.03
2018-09-03T20:16:46.308Z,28.47
2018-09-03T20:19:15.934Z,27.43
2018-09-03T20:21:45.219Z,25.63
2018-09-03T20:24:15.083Z,28.97
2018-09-03T20:26:44.404Z,29.03
2018-09-03T20:29:13.695Z,27.70
2018-09-03T20:31:43.345Z,26.13
2018-09-03T20:34:12.584Z,41.60
2018-09-03T20:36:42.420Z,42.93
2018-09-03T20:39:11.684Z,28.07
2018-09-03T20:41:40.909Z,29.60
2018-09-03T20:44:10.316Z,30.23
2018-09-03T20:46:39.652Z,30.47
2018-09-03T20:49:08.810Z,30.63
2018-09-03T20:51:38.021Z,31.03
2018-09-03T20:54:07.283Z,30.80
2018-09-03T20:56:37.053Z,30.70
2018-09-03T20:59:06.233Z,34.93
2018-09-03T21:01:35.567Z,32.33
2018-09-03T21:04:04.678Z,33.20
2018-09-03T21:06:33.825Z,33.93
2018-09-03T21:09:03.899Z,31.73
2018-09-03T21:11:33.589Z,33.97
2018-09-03T21:14:03.248Z,32.53
2018-09-03T21:16:32.363Z,34.93
2018-09-03T21:19:01.513Z,34.30
2018-09-03T21:21:30.906Z,32.50
2018-09-03T21:24:00.111Z,34.07
2018-09-03T21:26:29.304Z,34.47
2018-09-03T21:28:58.496Z,35.43
2018-09-03T21:31:27.756Z,36.50
2018-09-03T21:33:56.977Z,36.43
2018-09-03T21:36:26.902Z,36.53
2018-09-03T21:38:56.141Z,36.90
2018-09-03T21:41:25.931Z,35.63
2018-09-03T21:43:55.135Z,34.37
2018-09-03T21:46:24.397Z,31.70
2018-09-03T21:48:54.404Z,34.53
2018-09-03T21:51:23.584Z,35.37
2018-09-03T21:53:52.967Z,35.83
2018-09-03T21:56:22.348Z,37.37
2018-09-03T21:58:51.395Z,36.93
2018-09-03T22:01:20.637Z,39.33
2018-09-03T22:03:49.875Z,43.63
2018-09-03T22:06:19.032Z,46.83
2018-09-03T22:08:48.208Z,47.03
2018-09-03T22:11:17.436Z,45.73
2018-09-03T22:13:46.626Z,47.00
2018-09-03T22:16:15.770Z,47.37
2018-09-03T22:18:44.871Z,49.30
2018-09-03T22:21:14.043Z,49.50
2018-09-03T22:23:43.213Z,46.87
2018-09-03T22:26:12.862Z,48.20
2018-09-03T22:28:42.070Z,48.83
2018-09-03T22:31:11.173Z,51.57
2018-09-03T22:33:40.344Z,52.40
2018-09-03T22:36:09.500Z,50.20
2018-09-03T22:38:38.718Z,49.83
2018-09-03T22:41:07.803Z,46.07
2018-09-03T22:43:36.928Z,45.40
2018-09-03T22:46:06.094Z,46.03
2018-09-03T22:48:35.197Z,47.80
2018-09-03T22:51:04.456Z,48.20
2018-09-03T22:53:34.040Z,47.27
2018-09-03T22:56:03.139Z,47.27
2018-09-03T22:58:32.399Z,50.87
2018-09-03T23:01:01.504Z,49.03
2018-09-03T23:03:30.593Z,50.60
2018-09-03T23:05:59.689Z,51.07
2018-09-03T23:08:28.875Z,42.03
2018-09-03T23:10:57.979Z,42.63
2018-09-03T23:13:27.060Z,42.10
2018-09-03T23:15:56.155Z,39.67
2018-09-03T23:18:25.909Z,38.20
2018-09-03T23:20:55.033Z,40.20
2018-09-03T23:23:24.260Z,39.47
2018-09-03T23:25:53.462Z,40.13
2018-09-03T23:28:22.599Z,37.07
2018-09-03T23:30:51.702Z,38.43
2018-09-03T23:33:20.923Z,41.57
2018-09-03T23:35:50.055Z,40.23
2018-09-03T23:38:19.123Z,42.40
2018-09-03T23:40:48.933Z,40.17
2018-09-03T23:43:18.127Z,38.60
2018-09-03T23:45:47.235Z,39.93
2018-09-03T23:48:16.394Z,43.40
2018-09-03T23:50:46.100Z,40.00
2018-09-03T23:53:15.771Z,41.80
2018-09-03T23:55:45.503Z,39.37
2018-09-03T23:58:14.587Z,40.53
